Time;durP1;ratioP1;P1;durP2;ratioP2;P2;SDS_P1;SDS_P2;PMS_P1;PMS_P2;Temp;Humidity;BMP_temperature;BMP_pressure;BME280_temperature;BME280_humidity;BME280_pressure;Samples;Min_cycle;Max_cycle;Signal;HPM_P1;HPM_P2
2022/12/10 00:01:31;;;;;;;30.25;15.05;;;;;;;6.10;86.03;100346.94;1787630;80;27670;-62
2022/12/10 00:03:58;;;;;;;33.25;15.58;;;;;;;6.13;85.62;100340.53;1787365;80;25920;-62
2022/12/10 00:06:32;;;;;;;30.82;15.48;;;;;;;6.12;85.33;100349.51;1787798;80;25786;-62
2022/12/10 00:09:05;;;;;;;37.45;16.07;;;;;;;6.13;85.43;100342.33;1787384;80;25794;-62
2022/12/10 00:11:32;;;;;;;29.45;15.72;;;;;;;6.19;85.47;100348.06;1788114;80;25754;-62
2022/12/10 00:13:59;;;;;;;33.23;15.80;;;;;;;6.24;85.66;100342.36;1787280;80;27280;-62
2022/12/10 00:16:30;;;;;;;35.80;17.35;;;;;;;6.28;85.25;100330.95;1786656;79;26118;-62
2022/12/10 00:18:57;;;;;;;40.08;18.42;;;;;;;6.35;85.47;100329.50;1818712;78;25734;-62
2022/12/10 00:21:28;;;;;;;37.13;17.45;;;;;;;6.41;85.24;100320.53;1786812;80;26806;-62
2022/12/10 00:23:57;;;;;;;41.02;17.82;;;;;;;6.42;84.99;100325.37;1818709;78;25488;-62
2022/12/10 00:26:31;;;;;;;32.17;17.67;;;;;;;6.46;84.82;100324.17;1776865;80;28222;-62
2022/12/10 00:29:00;;;;;;;32.70;16.90;;;;;;;6.44;84.44;100318.09;1767129;81;25726;-62
2022/12/10 00:31:31;;;;;;;34.80;17.10;;;;;;;6.32;83.97;100317.23;1767475;81;26591;-62
2022/12/10 00:34:03;;;;;;;37.33;16.77;;;;;;;6.26;84.24;100309.22;1767296;81;26518;-62
2022/12/10 00:36:39;;;;;;;36.90;18.42;;;;;;;6.24;84.36;100316.48;1767335;81;43448;-62
2022/12/10 00:39:07;;;;;;;32.48;16.97;;;;;;;6.26;84.66;100312.38;1767218;81;27724;-62
2022/12/10 00:41:34;;;;;;;27.85;15.25;;;;;;;6.30;84.86;100311.66;1767185;81;25775;-62
2022/12/10 00:44:01;;;;;;;35.60;15.32;;;;;;;6.33;84.95;100303.38;1767298;81;25461;-62
2022/12/10 00:46:29;;;;;;;26.95;15.25;;;;;;;6.32;84.59;100299.88;1767309;81;26591;-62
2022/12/10 00:48:57;;;;;;;30.97;15.15;;;;;;;6.29;84.47;100300.10;1767328;81;25819;-62
2022/12/10 00:51:26;;;;;;;33.02;15.05;;;;;;;6.32;84.72;100293.20;1767617;81;27489;-62
2022/12/10 00:53:55;;;;;;;28.40;14.60;;;;;;;6.37;85.15;100286.16;1783871;79;25848;-62
2022/12/10 00:56:28;;;;;;;26.50;14.03;;;;;;;6.38;84.73;100291.37;1799217;79;25773;-62
2022/12/10 00:58:56;;;;;;;30.72;15.60;;;;;;;6.34;84.64;100272.56;1798820;79;25751;-62
2022/12/10 01:01:28;;;;;;;27.98;13.32;;;;;;;6.35;84.60;100282.28;1799227;79;25837;-62
2022/12/10 01:03:58;;;;;;;27.45;12.90;;;;;;;6.35;84.91;100264.05;1799023;79;27406;-62
2022/12/10 01:06:35;;;;;;;31.93;13.60;;;;;;;6.39;84.90;100270.86;1799364;79;25698;-62
2022/12/10 01:09:07;;;;;;;36.93;13.95;;;;;;;6.44;85.23;100270.50;1799034;79;25817;-62
2022/12/10 01:11:37;;;;;;;31.20;14.58;;;;;;;6.52;85.42;100267.56;1799328;79;26656;-62
2022/12/10 01:14:08;;;;;;;30.80;13.10;;;;;;;6.60;85.46;100274.11;1799160;79;26463;-62
2022/12/10 01:16:35;;;;;;;25.65;12.47;;;;;;;6.64;85.02;100264.38;1799116;79;27586;-62
2022/12/10 01:19:04;;;;;;;34.03;14.80;;;;;;;6.65;84.77;100263.92;1798897;79;26416;-62
2022/12/10 01:21:30;;;;;;;26.05;14.28;;;;;;;6.65;84.69;100262.58;1799426;79;25761;-62
2022/12/10 01:23:58;;;;;;;22.07;11.95;;;;;;;6.64;84.78;100252.36;1799171;79;25798;-62
2022/12/10 01:26:31;;;;;;;26.20;13.58;;;;;;;6.67;84.88;100252.12;1799387;79;25942;-62
2022/12/10 01:28:59;;;;;;;30.45;13.32;;;;;;;6.69;85.16;100243.97;1799195;79;27108;-62
2022/12/10 01:31:31;;;;;;;25.43;14.07;;;;;;;6.60;85.25;100236.69;1799358;79;26239;-62
2022/12/10 01:33:59;;;;;;;29.25;15.43;;;;;;;6.54;85.74;100232.22;1798988;79;25797;-62
2022/12/10 01:36:41;;;;;;;29.15;15.00;;;;;;;6.48;85.79;100237.20;1799556;79;26421;-61
2022/12/10 01:39:12;;;;;;;28.52;15.53;;;;;;;6.41;86.30;100234.16;1799171;79;25717;-62
2022/12/10 01:41:47;;;;;;;28.00;15.20;;;;;;;6.37;86.47;100227.37;1799373;79;27443;-62
2022/12/10 01:44:19;;;;;;;28.62;15.03;;;;;;;6.29;86.56;100219.13;1799001;79;25758;-62
2022/12/10 01:46:50;;;;;;;22.07;13.32;;;;;;;6.25;87.07;100219.36;1799286;79;25747;-62
2022/12/10 01:49:27;;;;;;;32.75;15.63;;;;;;;6.28;87.34;100213.42;1798966;79;25779;-62
2022/12/10 01:51:56;;;;;;;30.27;14.33;;;;;;;6.21;87.52;100208.57;1768266;79;26478;-62
2022/12/10 01:54:28;;;;;;;26.55;14.53;;;;;;;6.21;87.37;100201.03;1799111;79;28230;-62
2022/12/10 01:56:59;;;;;;;25.85;14.18;;;;;;;6.20;87.65;100188.64;1798716;79;25765;-62
2022/12/10 01:59:28;;;;;;;34.25;14.35;;;;;;;6.17;87.60;100185.73;1799346;79;25706;-62
2022/12/10 02:02:12;;;;;;;23.57;12.85;;;;;;;6.16;88.17;100177.36;1799476;79;25961;-62
2022/12/10 02:04:45;;;;;;;22.55;12.53;;;;;;;6.12;88.25;100181.26;1799245;79;25875;-62
2022/12/10 02:07:29;;;;;;;28.55;13.70;;;;;;;6.09;89.08;100172.14;1799241;79;26855;-62
2022/12/10 02:10:19;;;;;;;22.22;12.00;;;;;;;6.02;89.26;100173.61;1799284;79;25762;-62
2022/12/10 02:13:03;;;;;;;23.27;12.90;;;;;;;5.98;89.34;100166.30;1799345;79;25788;-62
2022/12/10 02:15:41;;;;;;;28.35;13.15;;;;;;;5.95;89.69;100166.53;1800008;79;26009;-62
2022/12/10 02:18:16;;;;;;;24.87;12.78;;;;;;;5.91;89.84;100169.09;1802152;79;25791;-62
2022/12/10 02:20:48;;;;;;;22.17;11.73;;;;;;;5.89;90.44;100163.85;1802507;79;28217;-62
2022/12/10 02:23:26;;;;;;;19.32;12.30;;;;;;;5.84;90.32;100156.70;1802737;79;25844;-62
2022/12/10 02:26:04;;;;;;;20.75;12.25;;;;;;;5.76;90.96;100145.29;1789922;79;25821;-62
2022/12/10 02:29:16;;;;;;;25.12;12.95;;;;;;;5.72;91.16;100140.31;1784487;80;25976;-62
2022/12/10 02:31:55;;;;;;;19.12;11.38;;;;;;;5.70;91.50;100148.91;1784141;80;25818;-62
2022/12/10 02:34:24;;;;;;;30.60;13.90;;;;;;;5.65;91.49;100153.27;1783924;80;28325;-62
2022/12/10 02:36:55;;;;;;;29.10;11.97;;;;;;;5.68;91.25;100158.88;1783985;80;25803;-63
2022/12/10 02:39:26;;;;;;;26.97;11.48;;;;;;;5.75;91.05;100149.42;1784289;79;25675;-62
2022/12/10 02:41:58;;;;;;;25.52;13.22;;;;;;;5.82;90.90;100149.80;1784382;80;27038;-62
2022/12/10 02:44:27;;;;;;;22.50;12.85;;;;;;;5.82;90.78;100146.63;1784563;80;25762;-62
2022/12/10 02:46:57;;;;;;;30.75;12.70;;;;;;;5.80;90.69;100157.44;1784218;80;27508;-62
2022/12/10 02:49:28;;;;;;;19.67;12.53;;;;;;;5.79;90.32;100144.19;1784321;80;25925;-62
2022/12/10 02:51:57;;;;;;;25.30;12.53;;;;;;;5.82;90.26;100143.95;1784001;80;25730;-62
2022/12/10 02:54:45;;;;;;;20.35;12.30;;;;;;;5.82;90.52;100145.30;1781536;80;25895;-62
2022/12/10 02:57:47;;;;;;;30.23;11.43;;;;;;;5.83;90.56;100143.00;1784227;80;25811;-62
2022/12/10 03:00:24;;;;;;;25.20;12.28;;;;;;;5.90;90.67;100132.19;1784048;80;28223;-62
2022/12/10 03:03:01;;;;;;;21.02;12.60;;;;;;;5.94;90.56;100136.33;1778624;80;26046;-62
2022/12/10 03:05:48;;;;;;;20.90;12.95;;;;;;;5.98;90.43;100134.73;1784147;79;25782;-62
2022/12/10 03:08:32;;;;;;;24.50;11.28;;;;;;;5.98;90.08;100136.93;1784284;80;25806;-62
2022/12/10 03:11:15;;;;;;;27.17;12.78;;;;;;;6.00;89.82;100131.02;1766893;80;25867;-62
2022/12/10 03:13:59;;;;;;;28.35;12.50;;;;;;;5.99;89.73;100135.09;1784230;80;27520;-63
2022/12/10 03:16:29;;;;;;;24.87;12.25;;;;;;;6.01;89.74;100130.52;1754665;81;25553;-62
2022/12/10 03:19:00;;;;;;;24.12;13.22;;;;;;;6.07;89.82;100126.88;1789801;78;25769;-62
2022/12/10 03:21:31;;;;;;;18.60;12.70;;;;;;;6.13;89.90;100119.34;1789571;79;25846;-62
2022/12/10 03:24:00;;;;;;;24.82;12.73;;;;;;;6.15;89.60;100112.89;1755563;80;25687;-62
2022/12/10 03:26:28;;;;;;;24.65;12.20;;;;;;;6.18;89.82;100115.33;1786046;80;27412;-62
2022/12/10 03:29:00;;;;;;;22.45;12.95;;;;;;;6.16;89.39;100111.92;1785492;80;25706;-62
2022/12/10 03:31:28;;;;;;;27.87;13.38;;;;;;;6.14;89.45;100103.18;1784348;79;25702;-62
2022/12/10 03:33:55;;;;;;;24.92;12.75;;;;;;;6.10;89.55;100091.06;1785528;80;25840;-62
2022/12/10 03:36:23;;;;;;;23.25;12.45;;;;;;;6.09;89.61;100102.25;1785729;80;25722;-62
2022/12/10 03:38:50;;;;;;;27.70;12.30;;;;;;;6.12;89.68;100097.14;1785541;80;27462;-62
2022/12/10 03:41:17;;;;;;;21.30;12.68;;;;;;;6.13;89.77;100096.17;1785621;80;25682;-62
2022/12/10 03:43:56;;;;;;;26.57;13.62;;;;;;;6.13;89.57;100085.48;1785681;80;25766;-62
2022/12/10 03:46:27;;;;;;;25.52;13.28;;;;;;;6.12;89.36;100082.45;1785745;80;26668;-62
2022/12/10 03:48:55;;;;;;;30.17;13.90;;;;;;;6.11;89.27;100081.58;1785749;80;26422;-62
2022/12/10 03:51:22;;;;;;;21.12;12.88;;;;;;;6.11;89.14;100071.41;1785690;80;27426;-62
2022/12/10 03:53:50;;;;;;;28.15;14.55;;;;;;;6.12;89.41;100073.10;1792753;79;27397;-62
2022/12/10 03:56:19;;;;;;;29.25;14.33;;;;;;;6.12;89.41;100074.44;1757055;81;25811;-62
2022/12/10 03:58:46;;;;;;;27.13;14.95;;;;;;;6.13;89.48;100069.46;1789553;80;25835;-62
2022/12/10 04:01:15;;;;;;;29.50;14.00;;;;;;;6.16;89.45;100070.53;1757281;81;25712;-63
2022/12/10 04:03:43;;;;;;;23.85;14.43;;;;;;;6.21;89.53;100067.48;1789772;80;27056;-63
2022/12/10 04:06:17;;;;;;;29.07;14.47;;;;;;;6.18;89.48;100055.23;1756970;81;25803;-63
2022/12/10 04:08:44;;;;;;;25.70;13.70;;;;;;;6.15;89.50;100055.97;1789951;80;25739;-63
2022/12/10 04:11:13;;;;;;;25.70;13.38;;;;;;;6.14;89.47;100054.27;1756789;81;26531;-63
2022/12/10 04:16:28;;;;;;;28.30;14.25;;;;;;;6.06;89.50;100054.88;1766404;80;27461;-63
2022/12/10 04:18:59;;;;;;;32.48;13.75;;;;;;;5.98;89.52;100047.48;1821957;78;25709;-63
2022/12/10 04:27:05;;;;;;;21.15;12.53;;;;;;;5.90;90.33;100040.09;1793208;80;25458;-62
2022/12/10 04:29:32;;;;;;;30.90;13.20;;;;;;;5.90;90.46;100048.59;1792923;80;27533;-62
2022/12/10 04:31:58;;;;;;;25.85;12.90;;;;;;;5.87;90.36;100045.66;1822428;78;25736;-62
2022/12/10 04:34:26;;;;;;;27.55;13.80;;;;;;;5.88;90.39;100044.69;1822601;78;26322;-62
2022/12/10 04:36:53;;;;;;;28.10;13.78;;;;;;;5.87;90.66;100059.01;1822629;78;25785;-62
2022/12/10 04:39:21;;;;;;;36.75;14.30;;;;;;;5.87;90.58;100047.00;1822748;78;25756;-62
2022/12/10 04:41:49;;;;;;;27.20;13.88;;;;;;;5.89;90.71;100049.56;1822564;78;27481;-62
2022/12/10 04:44:17;;;;;;;26.55;13.83;;;;;;;5.90;90.66;100061.45;1822903;78;25433;-62
2022/12/10 04:46:46;;;;;;;25.40;13.78;;;;;;;5.93;90.65;100060.34;1822523;78;25793;-62
2022/12/10 04:49:13;;;;;;;30.80;14.30;;;;;;;5.99;90.69;100059.90;1822869;78;25944;-62
2022/12/10 04:51:41;;;;;;;31.57;15.00;;;;;;;6.02;90.86;100055.62;1822551;78;26264;-62
2022/12/10 04:54:08;;;;;;;33.20;15.45;;;;;;;6.04;90.84;100062.20;1800441;78;27633;-62
2022/12/10 04:56:36;;;;;;;33.50;15.80;;;;;;;6.05;90.87;100056.72;1787916;80;25957;-62
2022/12/10 04:59:04;;;;;;;24.85;13.32;;;;;;;6.08;90.75;100051.61;1822167;78;25730;-62
2022/12/10 05:01:32;;;;;;;26.60;13.00;;;;;;;6.14;91.02;100061.78;1822518;78;25947;-62
2022/12/10 05:04:03;;;;;;;20.80;12.53;;;;;;;6.19;90.72;100058.27;1793319;80;25729;-62
2022/12/10 05:06:31;;;;;;;25.70;13.70;;;;;;;6.25;90.78;100062.27;1793200;80;27471;-62
2022/12/10 05:08:58;;;;;;;31.42;13.15;;;;;;;6.30;90.70;100063.22;1793504;80;25813;-62
2022/12/10 05:11:28;;;;;;;26.93;12.60;;;;;;;6.33;90.57;100061.14;1793227;80;25710;-62
2022/12/10 05:13:56;;;;;;;19.10;11.80;;;;;;;6.35;90.68;100055.67;1822944;78;25843;-62
2022/12/10 05:16:27;;;;;;;37.83;21.50;;;;;;;6.34;90.47;100053.97;1821665;78;25874;-62
2022/12/10 05:18:55;;;;;;;24.67;12.65;;;;;;;6.35;90.54;100055.20;1816740;78;27608;-62
2022/12/10 05:23:27;;;;;;;25.30;12.47;;;;;;;6.39;90.58;100056.63;1816811;78;25710;-62
2022/12/10 05:23:53;;;;;;;24.27;12.30;;;;;;;6.46;90.85;100055.63;1812818;78;25753;-62
2022/12/10 05:26:23;;;;;;;25.30;11.97;;;;;;;6.54;90.77;100054.50;1790940;78;25799;-62
2022/12/10 05:28:54;;;;;;;22.17;11.60;;;;;;;6.58;90.53;100054.63;1787623;79;25786;-62
2022/12/10 05:31:24;;;;;;;23.73;11.97;;;;;;;6.56;90.18;100049.02;1787442;80;28229;-62
2022/12/10 05:33:54;;;;;;;24.80;10.88;;;;;;;6.54;90.20;100057.18;1787505;80;25793;-62
2022/12/10 05:36:24;;;;;;;25.05;11.93;;;;;;;6.55;89.90;100052.20;1787837;80;25802;-62
2022/12/10 05:38:53;;;;;;;23.35;10.80;;;;;;;6.55;89.99;100050.86;1787411;79;26755;-62
2022/12/10 05:41:27;;;;;;;26.07;10.98;;;;;;;6.57;90.09;100061.41;1787741;80;25778;-62
2022/12/10 05:43:57;;;;;;;27.82;12.58;;;;;;;6.61;90.04;100050.84;1787856;79;27669;-62
2022/12/10 05:46:31;;;;;;;24.47;11.50;;;;;;;6.65;89.99;100050.09;1787676;79;25730;-62
2022/12/10 05:49:00;;;;;;;23.77;12.10;;;;;;;6.66;89.65;100041.10;1788115;79;25809;-62
2022/12/10 05:51:31;;;;;;;24.87;11.85;;;;;;;6.65;89.31;100040.73;1787546;79;25851;-62
2022/12/10 05:54:01;;;;;;;24.25;13.08;;;;;;;6.66;89.35;100038.43;1804582;78;26418;-62
2022/12/10 05:56:29;;;;;;;31.42;15.00;;;;;;;6.68;89.43;100039.98;1817069;79;27612;-62
2022/12/10 05:58:59;;;;;;;23.85;12.58;;;;;;;6.75;89.79;100028.30;1817287;78;25800;-62
2022/12/10 06:01:30;;;;;;;23.80;12.37;;;;;;;6.81;89.81;100045.14;1817108;78;26420;-62
2022/12/10 06:04:00;;;;;;;25.27;11.33;;;;;;;6.82;89.46;100041.97;1817207;78;25898;-62
2022/12/10 06:06:31;;;;;;;24.77;10.98;;;;;;;6.86;89.31;100035.40;1817397;78;25662;-62
2022/12/10 06:08:58;;;;;;;31.57;13.93;;;;;;;6.88;89.07;100034.79;1817294;78;27585;-62
2022/12/10 06:11:26;;;;;;;24.07;10.78;;;;;;;6.93;89.08;100030.39;1817015;78;25714;-62
2022/12/10 06:13:54;;;;;;;16.75;9.35;;;;;;;6.93;88.92;100024.53;1817009;79;25817;-62
2022/12/10 06:16:22;;;;;;;25.12;11.20;;;;;;;6.95;88.99;100026.59;1789820;79;26442;-63
2022/12/10 06:18:48;;;;;;;17.52;10.72;;;;;;;6.96;88.93;100022.95;1813846;79;25738;-62
2022/12/10 06:21:17;;;;;;;17.32;9.45;;;;;;;6.96;89.04;100019.41;1813959;79;27474;-63
2022/12/10 06:23:47;;;;;;;22.45;10.48;;;;;;;7.00;89.31;100018.18;1813808;78;25790;-63
2022/12/10 06:26:18;;;;;;;24.43;11.78;;;;;;;7.03;89.24;100018.77;1796722;79;25754;-62
2022/12/10 06:28:46;;;;;;;21.00;11.48;;;;;;;7.08;89.07;100021.04;1793117;80;25785;-62
2022/12/10 06:31:15;;;;;;;22.48;11.28;;;;;;;7.15;89.17;100018.69;1793231;80;25842;-63
2022/12/10 06:33:42;;;;;;;21.65;10.95;;;;;;;7.20;88.87;100017.79;1793084;80;28483;-62
2022/12/10 06:36:12;;;;;;;23.00;11.22;;;;;;;7.23;88.89;100019.34;1793001;80;25828;-63
2022/12/10 06:38:40;;;;;;;22.20;12.88;;;;;;;7.27;89.01;100031.48;1793316;79;25802;-62
2022/12/10 06:41:10;;;;;;;29.37;13.58;;;;;;;7.32;89.09;100018.08;1793438;80;25783;-62
2022/12/10 06:43:37;;;;;;;21.95;11.60;;;;;;;7.42;89.19;100024.80;1793063;80;25723;-62
2022/12/10 06:46:13;;;;;;;20.75;10.82;;;;;;;7.47;88.96;100019.91;1793103;80;27481;-62
2022/12/10 06:48:41;;;;;;;21.60;10.48;;;;;;;7.51;88.55;100026.66;1792896;80;25949;-62
2022/12/10 06:51:09;;;;;;;23.22;10.85;;;;;;;7.57;88.29;100018.59;1793534;80;25801;-62
2022/12/10 06:53:38;;;;;;;27.73;11.68;;;;;;;7.62;88.43;100020.36;1801587;79;26665;-62
2022/12/10 06:56:08;;;;;;;22.40;11.80;;;;;;;7.71;88.34;100019.22;1814071;79;26129;-63
2022/12/10 06:58:35;;;;;;;19.40;11.55;;;;;;;7.77;88.22;100017.32;1812931;78;28535;-63
2022/12/10 07:01:10;;;;;;;27.80;11.73;;;;;;;7.81;88.14;100019.59;1813952;79;26121;-63
2022/12/10 07:03:37;;;;;;;23.85;13.78;;;;;;;7.88;88.08;100018.55;1813792;79;26156;-62
2022/12/10 07:06:06;;;;;;;22.80;14.55;;;;;;;7.95;87.53;100018.83;1814157;79;26747;-64
2022/12/10 07:08:36;;;;;;;27.65;14.83;;;;;;;7.98;87.56;100014.04;1813795;79;25722;-62
2022/12/10 07:11:08;;;;;;;29.85;15.80;;;;;;;7.97;86.96;100012.38;1813999;79;28402;-63
2022/12/10 07:13:36;;;;;;;28.77;15.32;;;;;;;7.98;86.86;100016.72;1813748;79;25734;-63
2022/12/10 07:16:19;;;;;;;31.82;15.10;;;;;;;7.98;86.54;100011.87;1776741;78;25791;-63
2022/12/10 07:18:48;;;;;;;34.73;15.05;;;;;;;7.99;86.44;100003.69;1777956;80;25783;-63
2022/12/10 07:21:26;;;;;;;34.03;17.07;;;;;;;8.01;86.46;100002.23;1780963;79;25649;-62
2022/12/10 07:23:57;;;;;;;30.75;16.42;;;;;;;8.02;86.24;100000.38;1783195;80;28158;-63
2022/12/10 07:26:34;;;;;;;37.67;16.82;;;;;;;7.99;85.92;99994.31;1786945;80;25675;-65
2022/12/10 07:29:04;;;;;;;28.75;15.58;;;;;;;7.98;85.86;99998.48;1787782;79;25796;-62
2022/12/10 07:31:31;;;;;;;43.40;20.17;;;;;;;8.02;85.87;100003.06;1787381;79;25804;-62
2022/12/10 07:33:59;;;;;;;41.80;20.15;;;;;;;8.02;85.94;99997.23;1787849;79;26071;-62
2022/12/10 07:36:27;;;;;;;39.08;18.17;;;;;;;8.04;85.96;100000.59;1787232;80;27503;-62
2022/12/10 07:38:55;;;;;;;32.45;17.23;;;;;;;8.09;86.05;100000.17;1787611;80;25718;-62
2022/12/10 07:41:24;;;;;;;27.82;15.13;;;;;;;8.11;85.89;100007.08;1787426;80;25668;-62
2022/12/10 07:43:51;;;;;;;29.70;14.18;;;;;;;8.16;85.94;100003.98;1787709;79;25946;-62
2022/12/10 07:46:25;;;;;;;24.57;14.60;;;;;;;8.21;85.62;100000.89;1787487;79;25683;-62
2022/12/10 07:48:52;;;;;;;23.47;13.15;;;;;;;8.26;85.92;99990.61;1787858;79;27645;-62
2022/12/10 07:51:22;;;;;;;30.90;13.28;;;;;;;8.30;86.00;99983.97;1787433;80;25689;-62
2022/12/10 07:53:54;;;;;;;23.70;13.20;;;;;;;8.32;86.10;99987.36;1802694;78;25659;-62
2022/12/10 07:56:23;;;;;;;26.93;13.62;;;;;;;8.37;86.29;100001.20;1816626;78;25773;-62
2022/12/10 07:58:50;;;;;;;24.77;14.23;;;;;;;8.48;86.61;99998.03;1817227;78;25674;-63
2022/12/10 08:01:25;;;;;;;27.77;12.70;;;;;;;8.60;86.75;99990.20;1816837;79;28207;-63
2022/12/10 08:03:56;;;;;;;25.40;12.33;;;;;;;8.66;86.63;99982.92;1817141;78;25635;-63
2022/12/10 08:06:25;;;;;;;29.32;12.55;;;;;;;8.69;86.54;99981.30;1811729;79;25775;-63
2022/12/10 08:08:53;;;;;;;22.07;10.70;;;;;;;8.73;86.37;99976.50;1787739;80;25711;-62
2022/12/10 08:11:22;;;;;;;22.85;11.50;;;;;;;8.77;86.30;99973.89;1787380;80;25993;-62
2022/12/10 08:13:50;;;;;;;16.60;10.50;;;;;;;8.83;86.30;99967.94;1787712;80;27436;-63
2022/12/10 08:16:22;;;;;;;28.47;14.93;;;;;;;8.94;86.25;99970.94;1805973;77;25663;-62
2022/12/10 08:18:49;;;;;;;42.20;16.60;;;;;;;8.98;85.91;99964.31;1801048;77;25955;-63
2022/12/10 08:21:20;;;;;;;33.92;15.68;;;;;;;8.97;85.65;99958.59;1809167;79;26497;-63
2022/12/10 08:23:47;;;;;;;50.55;21.00;;;;;;;8.99;85.58;99949.91;1809469;79;25572;-62
2022/12/10 08:26:21;;;;;;;43.63;21.48;;;;;;;9.00;85.35;99949.39;1808898;79;27513;-62
2022/12/10 08:28:49;;;;;;;37.75;17.85;;;;;;;8.98;85.43;99946.01;1809319;79;25729;-62
2022/12/10 08:31:19;;;;;;;24.77;12.28;;;;;;;8.99;85.55;99960.64;1809121;79;25777;-63
2022/12/10 08:33:46;;;;;;;27.70;12.78;;;;;;;9.05;85.71;99959.21;1809394;79;26453;-62
2022/12/10 08:36:15;;;;;;;26.33;12.70;;;;;;;9.07;85.47;99956.72;1808924;78;25681;-62
2022/12/10 08:38:43;;;;;;;23.10;12.25;;;;;;;9.10;85.40;99958.77;1809338;79;27416;-62
2022/12/10 08:41:13;;;;;;;22.37;11.00;;;;;;;9.11;85.17;99947.88;1780472;78;25814;-62
2022/12/10 08:43:41;;;;;;;27.75;11.33;;;;;;;9.16;85.23;99951.47;1775740;79;25802;-63
2022/12/10 08:46:09;;;;;;;24.10;12.30;;;;;;;9.20;84.91;99947.48;1775509;80;25795;-63
2022/12/10 08:48:39;;;;;;;26.70;11.28;;;;;;;9.18;84.58;99942.78;1757100;81;25786;-62
2022/12/10 08:51:07;;;;;;;29.30;12.40;;;;;;;9.12;84.56;99943.34;1788019;80;27470;-62
2022/12/10 08:53:35;;;;;;;24.67;13.03;;;;;;;9.12;84.48;99949.58;1783764;78;25726;-63
2022/12/10 08:56:04;;;;;;;23.60;11.43;;;;;;;9.14;84.60;99941.38;1820877;78;25800;-62
2022/12/10 08:58:31;;;;;;;27.00;12.60;;;;;;;9.21;84.78;99947.83;1822768;78;26656;-62
2022/12/10 09:00:58;;;;;;;26.15;12.82;;;;;;;9.30;85.08;99952.83;1822123;78;25808;-63
2022/12/10 09:03:25;;;;;;;21.95;12.10;;;;;;;9.37;84.72;99945.86;1803895;78;27577;-63
2022/12/10 09:05:52;;;;;;;21.17;10.90;;;;;;;9.37;84.43;99947.20;1781362;80;25742;-62
2022/12/10 09:08:19;;;;;;;24.40;11.15;;;;;;;9.39;84.15;99935.31;1781513;78;25802;-63
2022/12/10 09:10:45;;;;;;;20.05;10.58;;;;;;;9.44;84.13;99942.09;1775909;79;25836;-63
2022/12/10 09:13:13;;;;;;;23.52;11.78;;;;;;;9.48;84.06;99945.67;1783873;79;25468;-63
2022/12/10 09:15:40;;;;;;;24.37;11.53;;;;;;;9.54;83.97;99946.41;1802775;78;27471;-62
2022/12/10 09:18:07;;;;;;;23.18;11.55;;;;;;;9.61;83.91;99939.95;1796437;78;26171;-62
2022/12/10 09:20:34;;;;;;;22.80;11.28;;;;;;;9.64;83.46;99932.91;1789277;80;25829;-63
2022/12/10 09:23:01;;;;;;;22.20;11.30;;;;;;;9.70;83.82;99928.30;1802071;79;25798;-63
2022/12/10 09:25:27;;;;;;;20.72;11.45;;;;;;;9.84;83.58;99939.50;1801851;79;25709;-63
2022/12/10 09:27:55;;;;;;;23.60;12.18;;;;;;;9.95;83.55;99941.98;1801862;79;27293;-63
2022/12/10 09:30:22;;;;;;;27.93;13.35;;;;;;;10.09;83.32;99937.92;1796649;79;25762;-63
2022/12/10 09:32:48;;;;;;;22.17;13.10;;;;;;;10.18;83.07;99941.50;1785794;79;25734;-63
2022/12/10 09:35:15;;;;;;;24.20;13.10;;;;;;;10.28;83.04;99943.62;1791326;78;25796;-63
2022/12/10 09:37:42;;;;;;;21.65;13.10;;;;;;;10.37;82.48;99938.31;1800018;78;25702;-63
2022/12/10 09:40:21;;;;;;;22.85;12.65;;;;;;;10.39;82.00;99929.62;1795391;79;27476;-63
2022/12/10 09:42:54;;;;;;;23.73;12.88;;;;;;;10.43;81.72;99925.64;1815308;78;27318;-63
2022/12/10 09:45:35;;;;;;;27.37;14.35;;;;;;;10.52;81.66;99923.36;1802741;78;25710;-63
2022/12/10 09:48:13;;;;;;;25.40;14.38;;;;;;;10.63;81.11;99919.05;1826576;78;25858;-63
2022/12/10 09:51:00;;;;;;;33.73;15.15;;;;;;;10.87;80.77;99922.05;1827653;78;25293;-63
2022/12/10 09:53:30;;;;;;;33.65;17.52;;;;;;;11.11;79.97;99912.80;1823160;78;27531;-63
2022/12/10 09:55:58;;;;;;;39.53;17.77;;;;;;;11.23;79.26;99913.34;1797728;78;25856;-63
2022/12/10 09:58:27;;;;;;;28.95;15.38;;;;;;;11.41;79.13;99902.98;1790541;80;25791;-63
2022/12/10 10:01:04;;;;;;;28.12;15.43;;;;;;;11.48;78.57;99910.73;1790998;80;25881;-63
2022/12/10 10:03:38;;;;;;;27.45;15.05;;;;;;;11.54;78.18;99907.38;1825507;78;25661;-63
2022/12/10 10:06:08;;;;;;;37.60;15.80;;;;;;;11.53;76.88;99896.27;1790879;80;27486;-63
2022/12/10 10:08:49;;;;;;;35.30;15.58;;;;;;;11.46;76.68;99895.23;1808903;77;25706;-63
2022/12/10 10:11:24;;;;;;;25.88;12.80;;;;;;;11.53;76.81;99892.73;1780335;79;25490;-63
2022/12/10 10:13:56;;;;;;;28.87;12.98;;;;;;;11.79;76.71;99884.53;1800681;79;26008;-64
2022/12/10 10:16:52;;;;;;;23.77;12.25;;;;;;;12.12;76.55;99885.95;1749310;79;25819;-64
2022/12/10 10:19:24;;;;;;;24.32;12.68;;;;;;;12.49;75.76;99888.64;1773837;80;27483;-63
2022/12/10 10:21:52;;;;;;;27.65;13.22;;;;;;;13.07;75.12;99884.44;1789264;80;25766;-63
2022/12/10 10:24:27;;;;;;;24.18;13.03;;;;;;;13.65;74.91;99887.41;1789228;80;25794;-63
2022/12/10 10:26:57;;;;;;;29.87;13.90;;;;;;;14.11;73.69;99875.78;1757764;80;26017;-63
2022/12/10 10:29:26;;;;;;;27.93;13.18;;;;;;;14.79;72.17;99885.31;1758636;80;25763;-63
2022/12/10 10:32:20;;;;;;;26.77;14.83;;;;;;;15.53;70.20;99888.50;1790162;80;28189;-63
2022/12/10 10:34:54;;;;;;;25.35;15.08;;;;;;;16.20;67.86;99880.23;1789250;80;25496;-63
2022/12/10 10:37:32;;;;;;;26.37;13.83;;;;;;;16.52;66.26;99874.77;1763332;80;25758;-63
2022/12/10 10:39:59;;;;;;;26.90;13.25;;;;;;;16.94;67.57;99869.44;1763979;80;25847;-64
2022/12/10 10:42:42;;;;;;;28.85;13.45;;;;;;;17.30;66.40;99866.97;1790737;80;26011;-64
2022/12/10 10:45:37;;;;;;;27.48;13.20;;;;;;;17.55;64.13;99868.31;1790297;80;27451;-64
2022/12/10 10:48:16;;;;;;;24.05;13.40;;;;;;;17.74;62.72;99861.27;1759334;81;25746;-64
2022/12/10 10:50:51;;;;;;;25.77;12.90;;;;;;;17.98;60.12;99862.58;1785751;80;25777;-64
2022/12/10 10:53:27;;;;;;;21.02;11.55;;;;;;;17.97;59.22;99865.02;1765107;80;25862;-64
2022/12/10 10:56:16;;;;;;;23.05;12.37;;;;;;;17.68;58.96;99858.31;1771555;80;25741;-64
2022/12/10 10:59:22;;;;;;;21.52;12.50;;;;;;;17.34;58.68;99860.63;1777265;80;27618;-63
2022/12/10 11:01:52;;;;;;;23.83;13.20;;;;;;;17.05;58.50;99859.34;1755070;80;25784;-64
2022/12/10 11:04:38;;;;;;;22.42;13.78;;;;;;;16.99;59.58;99859.29;1784467;80;25769;-64
2022/12/10 11:07:09;;;;;;;24.35;14.20;;;;;;;17.31;58.69;99861.03;1742106;80;26393;-64
2022/12/10 11:09:37;;;;;;;28.62;13.38;;;;;;;17.90;58.32;99860.03;1786622;80;26686;-64
2022/12/10 11:12:09;;;;;;;28.32;14.58;;;;;;;18.42;58.35;99863.85;1762030;80;28353;-64
2022/12/10 11:14:45;;;;;;;27.48;12.95;;;;;;;18.91;55.83;99858.13;1761482;80;25874;-64
2022/12/10 11:17:20;;;;;;;23.20;13.68;;;;;;;19.13;54.44;99847.00;1757624;80;25728;-64
2022/12/10 11:20:21;;;;;;;25.05;13.95;;;;;;;19.29;53.83;99845.15;1763671;80;25843;-64
2022/12/10 11:22:58;;;;;;;24.50;13.05;;;;;;;19.31;54.20;99836.23;1759350;80;25684;-64
2022/12/10 11:25:52;;;;;;;28.35;16.97;;;;;;;19.38;52.71;99827.48;1757973;80;27471;-64
2022/12/10 11:28:39;;;;;;;22.65;12.58;;;;;;;19.17;52.45;99837.32;1785498;80;25869;-64
2022/12/10 11:31:17;;;;;;;18.62;13.05;;;;;;;18.91;51.54;99837.70;1785880;80;25783;-64
2022/12/10 11:34:05;;;;;;;25.08;12.70;;;;;;;18.70;52.49;99832.81;1782287;80;26588;-65
2022/12/10 11:36:52;;;;;;;25.40;13.48;;;;;;;18.52;52.97;99841.66;1779960;80;25704;-64
2022/12/10 11:40:06;;;;;;;32.63;14.80;;;;;;;18.54;54.16;99844.16;1776876;80;27479;-64
2022/12/10 11:43:08;;;;;;;29.70;13.58;;;;;;;18.47;53.57;99835.99;1758723;81;25498;-64
2022/12/10 11:46:15;;;;;;;24.23;12.58;;;;;;;18.13;53.81;99836.53;1790865;80;25779;-64
2022/12/10 11:49:02;;;;;;;31.00;14.93;;;;;;;17.81;53.72;99830.84;1768632;80;25927;-63
2022/12/10 11:52:18;;;;;;;27.98;14.55;;;;;;;17.30;54.69;99824.01;1794683;79;25842;-64